SJX233 RCTP-VHHH
Flight info
| Callsign | SJX233 |
|---|---|
| Flight time | N/A |
| Altitude | 36000 |
| Route | CHALI1A CHALI T3 MKG A1 ELATO V522 ABBEY |
| Aircraft | A321/M-SDE3FGHIRWY/LB1 |
Departure
| Time | 2026-04-30 19:40 |
|---|---|
| Airport | Taiwan Taoyuan International Airport (RCTP) |
Arrival
| Time | N/A |
|---|---|
| Airport | Hong Kong International Airport (VHHH) |
| Time | Latitude | Longitude | Altitude | Speed | Heading |
|---|---|---|---|---|---|
| 2026-04-30 19:22 | 25.07790 | 121.23664 | 101 ft | 0 kts | 319° |
| 2026-04-30 19:26 | 25.07774 | 121.23679 | 100 ft | 3 kts | 319° |
| 2026-04-30 19:26 | 25.07746 | 121.23706 | 100 ft | 3 kts | 319° |
| 2026-04-30 19:26 | 25.07732 | 121.23719 | 100 ft | 3 kts | 308° |
| 2026-04-30 19:27 | 25.07722 | 121.23757 | 101 ft | 3 kts | 251° |
| 2026-04-30 19:27 | 25.07731 | 121.23775 | 100 ft | 0 kts | 226° |
| 2026-04-30 19:35 | 25.07728 | 121.23772 | 100 ft | 3 kts | 226° |
| 2026-04-30 19:35 | 25.07686 | 121.23726 | 101 ft | 11 kts | 220° |
| 2026-04-30 19:35 | 25.07623 | 121.23694 | 101 ft | 10 kts | 184° |
| 2026-04-30 19:35 | 25.07567 | 121.23723 | 99 ft | 9 kts | 138° |
| 2026-04-30 19:36 | 25.07518 | 121.23773 | 100 ft | 12 kts | 139° |
| 2026-04-30 19:36 | 25.07444 | 121.23761 | 102 ft | 12 kts | 227° |
| 2026-04-30 19:36 | 25.07307 | 121.23588 | 101 ft | 26 kts | 229° |
| 2026-04-30 19:37 | 25.07159 | 121.23398 | 100 ft | 39 kts | 229° |
| 2026-04-30 19:37 | 25.06974 | 121.23165 | 99 ft | 40 kts | 229° |
| 2026-04-30 19:37 | 25.06794 | 121.22936 | 102 ft | 40 kts | 229° |
| 2026-04-30 19:37 | 25.06614 | 121.22708 | 99 ft | 39 kts | 229° |
| 2026-04-30 19:38 | 25.06437 | 121.22484 | 100 ft | 38 kts | 229° |
| 2026-04-30 19:38 | 25.06306 | 121.22327 | 100 ft | 15 kts | 211° |
| 2026-04-30 19:38 | 25.06220 | 121.22375 | 98 ft | 16 kts | 138° |
| 2026-04-30 19:38 | 25.06180 | 121.22460 | 95 ft | 13 kts | 79° |
| 2026-04-30 19:39 | 25.06225 | 121.22533 | 95 ft | 9 kts | 49° |
| 2026-04-30 19:39 | 25.06326 | 121.22660 | 95 ft | 51 kts | 49° |
| 2026-04-30 19:39 | 25.06717 | 121.23158 | 95 ft | 116 kts | 49° |
| 2026-04-30 19:39 | 25.07357 | 121.23976 | 105 ft | 162 kts | 50° |
| 2026-04-30 19:40 | 25.08122 | 121.24923 | 671 ft | 165 kts | 49° |
| 2026-04-30 19:40 | 25.08876 | 121.25884 | 1370 ft | 165 kts | 51° |
| 2026-04-30 19:40 | 25.09621 | 121.26858 | 1982 ft | 170 kts | 51° |
| 2026-04-30 19:40 | 25.10420 | 121.27909 | 2238 ft | 193 kts | 51° |
| 2026-04-30 19:41 | 25.11318 | 121.29085 | 2799 ft | 204 kts | 51° |
| 2026-04-30 19:41 | 25.12382 | 121.30181 | 3368 ft | 223 kts | 28° |
| 2026-04-30 19:41 | 25.13998 | 121.30417 | 3748 ft | 253 kts | 349° |
| 2026-04-30 19:41 | 25.15588 | 121.29476 | 4387 ft | 267 kts | 319° |
| 2026-04-30 19:42 | 25.16882 | 121.28000 | 5312 ft | 268 kts | 308° |
| 2026-04-30 19:42 | 25.18053 | 121.26389 | 6219 ft | 270 kts | 305° |
| 2026-04-30 19:42 | 25.19214 | 121.24767 | 7025 ft | 274 kts | 305° |
| 2026-04-30 19:42 | 25.20436 | 121.23134 | 7883 ft | 276 kts | 307° |
| 2026-04-30 19:43 | 25.21705 | 121.21530 | 8709 ft | 279 kts | 309° |
| 2026-04-30 19:43 | 25.23017 | 121.19943 | 9563 ft | 281 kts | 310° |
| 2026-04-30 19:43 | 25.24364 | 121.18355 | 10313 ft | 286 kts | 311° |
| 2026-04-30 19:44 | 25.27021 | 121.14711 | 10694 ft | 327 kts | 290° |
| 2026-04-30 19:44 | 25.27363 | 121.12208 | 11141 ft | 335 kts | 265° |
| 2026-04-30 19:44 | 25.26651 | 121.09755 | 11756 ft | 342 kts | 240° |
| 2026-04-30 19:44 | 25.25092 | 121.07745 | 12415 ft | 348 kts | 228° |
| 2026-04-30 19:45 | 25.23440 | 121.05775 | 13119 ft | 349 kts | 231° |
| 2026-04-30 19:45 | 25.21839 | 121.03746 | 13808 ft | 351 kts | 232° |
| 2026-04-30 19:45 | 25.20264 | 121.01706 | 14407 ft | 354 kts | 231° |
| 2026-04-30 19:45 | 25.18591 | 120.99695 | 14984 ft | 357 kts | 229° |
| 2026-04-30 19:46 | 25.16827 | 120.97735 | 15561 ft | 361 kts | 227° |
| 2026-04-30 19:46 | 25.15009 | 120.95805 | 16121 ft | 364 kts | 227° |
| 2026-04-30 19:46 | 25.13157 | 120.93878 | 16661 ft | 368 kts | 226° |
| 2026-04-30 19:46 | 25.11924 | 120.92592 | 17012 ft | 370 kts | 227° |
| 2026-04-30 19:47 | 25.10052 | 120.90622 | 17542 ft | 373 kts | 227° |
| 2026-04-30 19:47 | 25.08181 | 120.88628 | 18058 ft | 376 kts | 227° |
| 2026-04-30 19:47 | 25.06297 | 120.86602 | 18534 ft | 379 kts | 227° |
| 2026-04-30 19:47 | 25.03788 | 120.83889 | 19103 ft | 382 kts | 227° |
| 2026-04-30 19:48 | 25.02498 | 120.82493 | 19395 ft | 384 kts | 227° |
| 2026-04-30 19:48 | 25.00602 | 120.80448 | 19832 ft | 387 kts | 227° |
| 2026-04-30 19:48 | 24.98656 | 120.78355 | 20274 ft | 390 kts | 227° |
| 2026-04-30 19:48 | 24.96701 | 120.76258 | 20700 ft | 393 kts | 227° |
| 2026-04-30 19:49 | 24.94736 | 120.74150 | 21119 ft | 395 kts | 227° |
| 2026-04-30 19:49 | 24.90793 | 120.69915 | 21952 ft | 401 kts | 227° |
| 2026-04-30 19:49 | 24.88785 | 120.67755 | 22352 ft | 404 kts | 227° |
| 2026-04-30 19:50 | 24.86764 | 120.65584 | 22762 ft | 406 kts | 227° |
| 2026-04-30 19:50 | 24.84729 | 120.63400 | 23174 ft | 409 kts | 227° |
| 2026-04-30 19:50 | 24.82679 | 120.61202 | 23575 ft | 412 kts | 227° |
| 2026-04-30 19:50 | 24.80619 | 120.58996 | 23919 ft | 414 kts | 227° |
| 2026-04-30 19:51 | 24.78546 | 120.56774 | 24272 ft | 416 kts | 227° |
| 2026-04-30 19:51 | 24.76467 | 120.54547 | 24631 ft | 418 kts | 227° |
| 2026-04-30 19:51 | 24.74398 | 120.52335 | 24988 ft | 420 kts | 227° |
| 2026-04-30 19:51 | 24.72185 | 120.50216 | 25330 ft | 425 kts | 219° |
| 2026-04-30 19:52 | 24.69744 | 120.48350 | 25677 ft | 427 kts | 218° |
| 2026-04-30 19:52 | 24.67290 | 120.46492 | 26029 ft | 429 kts | 218° |
| 2026-04-30 19:52 | 24.64816 | 120.44621 | 26384 ft | 432 kts | 218° |
| 2026-04-30 19:52 | 24.62337 | 120.42749 | 26732 ft | 434 kts | 218° |
| 2026-04-30 19:53 | 24.59869 | 120.40887 | 27076 ft | 436 kts | 218° |
| 2026-04-30 19:53 | 24.57364 | 120.38994 | 27426 ft | 438 kts | 218° |
| 2026-04-30 19:53 | 24.54847 | 120.37089 | 27767 ft | 440 kts | 218° |
| 2026-04-30 19:53 | 24.52322 | 120.35177 | 28101 ft | 442 kts | 218° |
| 2026-04-30 19:54 | 24.49770 | 120.33249 | 28426 ft | 444 kts | 218° |
| 2026-04-30 19:54 | 24.47218 | 120.31324 | 28748 ft | 446 kts | 218° |
| 2026-04-30 19:54 | 24.44692 | 120.29416 | 29056 ft | 447 kts | 218° |
| 2026-04-30 19:54 | 24.42130 | 120.27454 | 29382 ft | 449 kts | 218° |
| 2026-04-30 19:55 | 24.39575 | 120.25469 | 29674 ft | 451 kts | 219° |
| 2026-04-30 19:55 | 24.37007 | 120.23460 | 29983 ft | 453 kts | 219° |
| 2026-04-30 19:55 | 24.34441 | 120.21447 | 30300 ft | 453 kts | 219° |
| 2026-04-30 19:55 | 24.31870 | 120.19436 | 30685 ft | 452 kts | 219° |
| 2026-04-30 19:56 | 24.29314 | 120.17446 | 31084 ft | 450 kts | 219° |
| 2026-04-30 19:56 | 24.26755 | 120.15460 | 31478 ft | 449 kts | 219° |
| 2026-04-30 19:56 | 24.24238 | 120.13510 | 31880 ft | 447 kts | 219° |
| 2026-04-30 19:56 | 24.21696 | 120.11545 | 32292 ft | 446 kts | 219° |
| 2026-04-30 19:57 | 24.19163 | 120.09590 | 32716 ft | 444 kts | 219° |
| 2026-04-30 19:57 | 24.16645 | 120.07646 | 33135 ft | 443 kts | 219° |
| 2026-04-30 19:57 | 24.14129 | 120.05699 | 33550 ft | 441 kts | 219° |
| 2026-04-30 19:57 | 24.11627 | 120.03764 | 33965 ft | 440 kts | 219° |
| 2026-04-30 19:58 | 24.09128 | 120.01835 | 34331 ft | 438 kts | 219° |
| 2026-04-30 19:58 | 24.06640 | 119.99918 | 34692 ft | 436 kts | 219° |
| 2026-04-30 19:58 | 24.04158 | 119.98002 | 35081 ft | 434 kts | 219° |
| 2026-04-30 19:58 | 24.01725 | 119.96123 | 35452 ft | 432 kts | 219° |
| 2026-04-30 19:59 | 23.99270 | 119.94229 | 35830 ft | 430 kts | 219° |
| 2026-04-30 19:59 | 23.96819 | 119.92338 | 35986 ft | 429 kts | 219° |
| 2026-04-30 20:00 | 23.89595 | 119.86783 | 36018 ft | 422 kts | 219° |
| 2026-04-30 20:00 | 23.84791 | 119.83091 | 36022 ft | 422 kts | 219° |
| 2026-04-30 20:01 | 23.77577 | 119.77544 | 36026 ft | 422 kts | 219° |
| 2026-04-30 20:01 | 23.72794 | 119.73877 | 36026 ft | 422 kts | 219° |
| 2026-04-30 20:02 | 23.65578 | 119.68354 | 36030 ft | 422 kts | 219° |
| 2026-04-30 20:03 | 23.58825 | 119.62302 | 36030 ft | 414 kts | 235° |
| 2026-04-30 20:03 | 23.55693 | 119.57106 | 36030 ft | 412 kts | 240° |
| 2026-04-30 20:04 | 23.52636 | 119.51810 | 36033 ft | 413 kts | 240° |
| 2026-04-30 20:05 | 23.48034 | 119.43857 | 36036 ft | 413 kts | 240° |
| 2026-04-30 20:05 | 23.43436 | 119.35949 | 36036 ft | 413 kts | 240° |
| 2026-04-30 20:06 | 23.40349 | 119.30656 | 36032 ft | 413 kts | 240° |
| 2026-04-30 20:06 | 23.37277 | 119.25389 | 36029 ft | 413 kts | 240° |
| 2026-04-30 20:07 | 23.34191 | 119.20096 | 36028 ft | 413 kts | 240° |
| 2026-04-30 20:08 | 23.29571 | 119.12164 | 36028 ft | 413 kts | 240° |
| 2026-04-30 20:08 | 23.26512 | 119.06922 | 36026 ft | 413 kts | 240° |
| 2026-04-30 20:09 | 23.23428 | 119.01658 | 36028 ft | 413 kts | 240° |
| 2026-04-30 20:09 | 23.18783 | 118.93753 | 36030 ft | 413 kts | 240° |
| 2026-04-30 20:10 | 23.14156 | 118.85848 | 36029 ft | 413 kts | 240° |
| 2026-04-30 20:11 | 23.09539 | 118.77991 | 36028 ft | 412 kts | 240° |
| 2026-04-30 20:11 | 23.06450 | 118.72744 | 36030 ft | 412 kts | 240° |
| 2026-04-30 20:12 | 23.01831 | 118.64913 | 36032 ft | 412 kts | 240° |
| 2026-04-30 20:13 | 22.98741 | 118.59664 | 36033 ft | 412 kts | 240° |
| 2026-04-30 20:13 | 22.95648 | 118.54429 | 36033 ft | 412 kts | 239° |
| 2026-04-30 20:14 | 22.92546 | 118.49200 | 36034 ft | 412 kts | 239° |
| 2026-04-30 20:14 | 22.89439 | 118.43983 | 36033 ft | 411 kts | 239° |
| 2026-04-30 20:15 | 22.86351 | 118.38796 | 36033 ft | 411 kts | 239° |
| 2026-04-30 20:15 | 22.83250 | 118.33597 | 36034 ft | 410 kts | 239° |
| 2026-04-30 20:16 | 22.80140 | 118.28385 | 36034 ft | 410 kts | 239° |
| 2026-04-30 20:16 | 22.77059 | 118.23227 | 36031 ft | 409 kts | 239° |
| 2026-04-30 20:17 | 22.73962 | 118.18033 | 36030 ft | 409 kts | 239° |
| 2026-04-30 20:17 | 22.70867 | 118.12860 | 36029 ft | 409 kts | 239° |
| 2026-04-30 20:18 | 22.67779 | 118.07727 | 36024 ft | 408 kts | 239° |
| 2026-04-30 20:18 | 22.64677 | 118.02557 | 36022 ft | 408 kts | 239° |
| 2026-04-30 20:19 | 22.61605 | 117.97429 | 36025 ft | 408 kts | 239° |
| 2026-04-30 20:19 | 22.58515 | 117.92269 | 36025 ft | 409 kts | 239° |
| 2026-04-30 20:20 | 22.55440 | 117.87086 | 36026 ft | 409 kts | 239° |
| 2026-04-30 20:20 | 22.52365 | 117.81905 | 36026 ft | 409 kts | 239° |
| 2026-04-30 20:21 | 22.49287 | 117.76728 | 36029 ft | 409 kts | 239° |
| 2026-04-30 20:21 | 22.46224 | 117.71589 | 36030 ft | 409 kts | 239° |
| 2026-04-30 20:22 | 22.43135 | 117.66423 | 36028 ft | 408 kts | 239° |
| 2026-04-30 20:22 | 22.40049 | 117.61244 | 36026 ft | 408 kts | 239° |
| 2026-04-30 20:23 | 22.36990 | 117.56114 | 36022 ft | 408 kts | 239° |
| 2026-04-30 20:23 | 22.34220 | 117.50783 | 36023 ft | 406 kts | 251° |
| 2026-04-30 20:24 | 22.33233 | 117.44808 | 36017 ft | 405 kts | 268° |
| 2026-04-30 20:24 | 22.33139 | 117.38747 | 36014 ft | 406 kts | 268° |
| 2026-04-30 20:25 | 22.32975 | 117.29595 | 36017 ft | 406 kts | 268° |
| 2026-04-30 20:26 | 22.32801 | 117.20428 | 36020 ft | 407 kts | 268° |
| 2026-04-30 20:26 | 22.32626 | 117.11287 | 36025 ft | 408 kts | 268° |
| 2026-04-30 20:27 | 22.32387 | 116.99012 | 36033 ft | 408 kts | 268° |
| 2026-04-30 20:28 | 22.32129 | 116.86773 | 36039 ft | 408 kts | 268° |
| 2026-04-30 20:30 | 22.31805 | 116.71463 | 36036 ft | 408 kts | 268° |
| 2026-04-30 20:31 | 22.31390 | 116.53080 | 36033 ft | 409 kts | 268° |
| 2026-04-30 20:32 | 22.31028 | 116.37695 | 36032 ft | 410 kts | 268° |
| 2026-04-30 20:33 | 22.30799 | 116.28480 | 36030 ft | 411 kts | 268° |
| 2026-04-30 20:34 | 22.30575 | 116.19209 | 36034 ft | 411 kts | 268° |
| 2026-04-30 20:35 | 22.30339 | 116.09962 | 36036 ft | 412 kts | 268° |
| 2026-04-30 20:35 | 22.30119 | 116.01707 | 36037 ft | 413 kts | 268° |
| 2026-04-30 20:36 | 22.29929 | 115.94487 | 36020 ft | 415 kts | 268° |
| 2026-04-30 20:37 | 22.29701 | 115.86136 | 36019 ft | 416 kts | 268° |
| 2026-04-30 20:37 | 22.29535 | 115.79914 | 36019 ft | 417 kts | 268° |
| 2026-04-30 20:38 | 22.29369 | 115.73646 | 36022 ft | 417 kts | 268° |
| 2026-04-30 20:38 | 22.29205 | 115.67368 | 36026 ft | 418 kts | 268° |
| 2026-04-30 20:39 | 22.28955 | 115.57981 | 36030 ft | 418 kts | 268° |
| 2026-04-30 20:40 | 22.28691 | 115.48548 | 36029 ft | 418 kts | 268° |
| 2026-04-30 20:40 | 22.28514 | 115.42300 | 36027 ft | 419 kts | 268° |